createdAt,value
2023-02-18T00:01:42.749Z,99264.42
2023-02-18T00:04:11.215Z,99274.67
2023-02-18T00:06:39.853Z,99276.92
2023-02-18T00:09:09.422Z,99271.87
2023-02-18T00:11:38.970Z,99276.88
2023-02-18T00:14:12.416Z,99285.20
2023-02-18T00:16:41.473Z,99287.28
2023-02-18T00:19:16.471Z,99295.44
2023-02-18T00:21:45.407Z,99303.08
2023-02-18T00:24:15.768Z,99300.28
2023-02-18T00:26:45.224Z,99312.09
2023-02-18T00:29:13.834Z,99306.33
2023-02-18T00:31:42.449Z,99305.08
2023-02-18T00:34:12.512Z,99296.73
2023-02-18T00:36:40.917Z,99307.33
2023-02-18T00:39:11.280Z,99309.38
2023-02-18T00:41:40.053Z,99312.32
2023-02-18T00:44:09.500Z,99316.64
2023-02-18T00:46:38.064Z,99315.24
2023-02-18T00:49:06.677Z,99320.59
2023-02-18T00:51:35.759Z,99323.85
2023-02-18T00:54:04.082Z,99326.60
2023-02-18T00:56:32.298Z,99327.29
2023-02-18T00:59:00.642Z,99328.84
2023-02-18T01:01:29.064Z,99334.02
2023-02-18T01:03:57.325Z,99331.07
2023-02-18T01:06:25.508Z,99333.30
2023-02-18T01:08:53.826Z,99336.77
2023-02-18T01:11:22.135Z,99341.59
2023-02-18T01:13:50.385Z,99346.41
2023-02-18T01:16:19.129Z,99353.16
2023-02-18T01:18:47.690Z,99348.65
2023-02-18T01:21:16.292Z,99357.85
2023-02-18T01:23:44.560Z,99352.97
2023-02-18T01:26:12.961Z,99360.58
2023-02-18T01:28:41.909Z,99366.11
2023-02-18T01:31:13.617Z,99365.89
2023-02-18T01:33:42.837Z,99372.13
2023-02-18T01:36:11.832Z,99380.27
2023-02-18T01:38:40.772Z,99383.73
2023-02-18T01:41:09.788Z,99378.36
2023-02-18T01:43:39.142Z,99381.47
2023-02-18T01:46:15.206Z,99376.94
2023-02-18T01:49:03.833Z,99381.59
2023-02-18T01:51:36.510Z,99384.71
2023-02-18T01:54:22.918Z,99386.66
2023-02-18T01:57:16.210Z,99396.77
2023-02-18T01:59:50.196Z,99389.70
2023-02-18T02:02:23.128Z,99385.17
2023-02-18T02:04:52.376Z,99389.18
2023-02-18T02:07:23.045Z,99387.96
2023-02-18T02:09:54.584Z,99383.95
2023-02-18T02:12:26.003Z,99393.69
2023-02-18T02:15:13.982Z,99380.70
2023-02-18T02:18:07.175Z,99382.96
2023-02-18T02:20:57.238Z,99391.46
2023-02-18T02:23:25.276Z,99387.45
2023-02-18T02:26:30.747Z,99389.69
2023-02-18T02:29:28.662Z,99384.13
2023-02-18T02:32:25.176Z,99390.21
2023-02-18T02:35:03.515Z,99383.63
2023-02-18T02:37:50.373Z,99375.48
2023-02-18T02:40:30.573Z,99392.64
2023-02-18T02:43:04.629Z,99403.03
2023-02-18T02:45:47.846Z,99417.06
2023-02-18T02:48:26.223Z,99408.90
2023-02-18T02:51:20.804Z,99404.55
2023-02-18T02:53:49.306Z,99404.70
2023-02-18T02:56:25.551Z,99406.42
2023-02-18T02:59:00.048Z,99408.84
2023-02-18T03:01:51.191Z,99412.80
2023-02-18T03:04:53.399Z,99412.45
2023-02-18T03:08:03.159Z,99419.52
2023-02-18T03:10:44.282Z,99416.89
2023-02-18T03:13:24.627Z,99427.27
2023-02-18T03:15:57.420Z,99423.98
2023-02-18T03:18:43.721Z,99449.63
2023-02-18T03:21:53.789Z,99438.70
2023-02-18T03:24:42.067Z,99443.68
2023-02-18T03:27:16.336Z,99436.34
2023-02-18T03:29:48.806Z,99435.60
2023-02-18T03:32:20.486Z,99452.56
2023-02-18T03:34:53.598Z,99445.63
2023-02-18T03:37:22.550Z,99452.21
2023-02-18T03:39:55.673Z,99460.05
2023-02-18T03:42:28.703Z,99460.05
2023-02-18T03:44:57.035Z,99456.76
2023-02-18T03:47:25.476Z,99449.47
2023-02-18T03:49:53.692Z,99460.52
2023-02-18T03:52:22.032Z,99462.93
2023-02-18T03:54:51.009Z,99460.19
2023-02-18T03:57:19.350Z,99465.91
2023-02-18T03:59:47.663Z,99467.82
2023-02-18T04:02:15.900Z,99469.54
2023-02-18T04:04:44.097Z,99478.55
2023-02-18T04:07:12.784Z,99487.88
2023-02-18T04:09:40.979Z,99485.60
2023-02-18T04:12:09.270Z,99493.17
2023-02-18T04:14:37.580Z,99492.33
2023-02-18T04:17:05.771Z,99494.59
2023-02-18T04:19:34.285Z,99493.73
2023-02-18T04:22:03.253Z,99498.94
2023-02-18T04:24:31.434Z,99494.25
2023-02-18T04:26:59.634Z,99501.48
2023-02-18T04:29:28.067Z,99497.83
2023-02-18T04:31:56.279Z,99496.91
2023-02-18T04:34:24.571Z,99506.08
2023-02-18T04:36:52.883Z,99515.61
2023-02-18T04:39:21.214Z,99518.73
2023-02-18T04:41:49.484Z,99526.52
2023-02-18T04:44:17.808Z,99524.40
2023-02-18T04:46:46.080Z,99525.56
2023-02-18T04:49:14.354Z,99535.40
2023-02-18T04:51:42.626Z,99539.05
2023-02-18T04:54:10.836Z,99542.17
2023-02-18T04:56:39.097Z,99547.23
2023-02-18T04:59:07.485Z,99550.16
2023-02-18T05:01:36.009Z,99549.14
2023-02-18T05:04:04.368Z,99555.38
2023-02-18T05:06:32.679Z,99562.45
2023-02-18T05:09:00.894Z,99566.08
2023-02-18T05:11:29.072Z,99568.90
2023-02-18T05:13:57.527Z,99572.93
2023-02-18T05:16:25.854Z,99578.52
2023-02-18T05:18:54.176Z,99578.52
2023-02-18T05:21:22.521Z,99577.86
2023-02-18T05:23:50.713Z,99579.05
2023-02-18T05:26:19.048Z,99579.76
2023-02-18T05:28:47.398Z,99582.89
2023-02-18T05:31:15.742Z,99591.77
2023-02-18T05:33:43.996Z,99589.87
2023-02-18T05:36:12.253Z,99592.32
2023-02-18T05:38:40.480Z,99588.66
2023-02-18T05:41:09.353Z,99600.60
2023-02-18T05:43:57.606Z,99596.07
2023-02-18T05:46:25.910Z,99605.73
2023-02-18T05:48:54.339Z,99593.80
2023-02-18T05:51:22.586Z,99599.20
2023-02-18T05:53:50.786Z,99602.86
2023-02-18T05:56:19.057Z,99603.04
2023-02-18T05:58:47.541Z,99601.48
2023-02-18T06:01:15.789Z,99604.40
2023-02-18T06:03:44.053Z,99610.61
2023-02-18T06:06:12.614Z,99606.61
2023-02-18T06:08:40.945Z,99614.02
2023-02-18T06:11:09.269Z,99610.20
2023-02-18T06:13:37.535Z,99615.23
2023-02-18T06:16:06.267Z,99612.45
2023-02-18T06:18:34.699Z,99610.02
2023-02-18T06:21:02.952Z,99612.61
2023-02-18T06:23:31.155Z,99616.58
2023-02-18T06:25:59.426Z,99612.42
2023-02-18T06:28:27.877Z,99623.00
2023-02-18T06:30:56.107Z,99623.73
2023-02-18T06:33:24.401Z,99621.88
2023-02-18T06:35:55.210Z,99627.94
2023-02-18T06:38:23.531Z,99628.46
2023-02-18T06:40:51.808Z,99635.59
2023-02-18T06:43:22.463Z,99643.74
2023-02-18T06:45:51.394Z,99648.23
2023-02-18T06:48:19.809Z,99647.93
2023-02-18T06:50:49.215Z,99654.56
2023-02-18T06:53:18.041Z,99649.58
2023-02-18T06:55:46.379Z,99651.35
2023-02-18T06:58:14.885Z,99653.98
2023-02-18T07:00:43.484Z,99645.48
2023-02-18T07:03:14.464Z,99647.04
2023-02-18T07:05:45.185Z,99645.14
2023-02-18T07:08:13.683Z,99642.02
2023-02-18T07:10:42.256Z,99641.86
2023-02-18T07:13:10.865Z,99637.92
2023-02-18T07:15:39.389Z,99636.06
2023-02-18T07:18:07.613Z,99637.27
2023-02-18T07:20:35.960Z,99632.42
2023-02-18T07:23:04.282Z,99629.65
2023-02-18T07:25:32.574Z,99636.98
2023-02-18T07:28:00.761Z,99635.27
2023-02-18T07:30:29.111Z,99628.34
2023-02-18T07:32:57.489Z,99635.88
2023-02-18T07:35:25.712Z,99631.77
2023-02-18T07:37:54.069Z,99641.33
2023-02-18T07:40:22.695Z,99638.40
2023-02-18T07:42:51.148Z,99635.11
2023-02-18T07:45:19.791Z,99644.13
2023-02-18T07:47:48.364Z,99635.98
2023-02-18T07:50:16.597Z,99635.67
2023-02-18T07:52:44.882Z,99638.64
2023-02-18T07:55:13.019Z,99641.92
2023-02-18T07:57:57.552Z,99641.23
2023-02-18T08:00:25.923Z,99644.02
2023-02-18T08:02:54.303Z,99650.95
2023-02-18T08:05:22.659Z,99647.85
2023-02-18T08:07:50.972Z,99652.38
2023-02-18T08:10:19.450Z,99655.39
2023-02-18T08:12:47.848Z,99658.19
2023-02-18T08:15:16.860Z,99663.45
2023-02-18T08:17:45.124Z,99662.27
2023-02-18T08:20:13.491Z,99660.21
2023-02-18T08:22:41.816Z,99659.86
2023-02-18T08:25:18.146Z,99657.79
2023-02-18T08:27:55.991Z,99646.52
2023-02-18T08:30:24.244Z,99655.77
2023-02-18T08:32:53.018Z,99655.98
2023-02-18T08:35:21.654Z,99657.27
2023-02-18T08:37:52.266Z,99656.60
2023-02-18T08:40:22.416Z,99661.10
2023-02-18T08:42:50.658Z,99670.81
2023-02-18T08:45:19.053Z,99665.27
2023-02-18T08:48:18.862Z,99663.76
2023-02-18T08:50:35.844Z,99666.77
2023-02-18T08:53:05.231Z,99665.95
2023-02-18T08:55:34.531Z,99656.30
2023-02-18T08:58:04.985Z,99658.77
2023-02-18T09:00:33.748Z,99657.75
2023-02-18T09:03:02.132Z,99663.51
2023-02-18T09:05:30.494Z,99654.14
2023-02-18T09:07:58.778Z,99665.29
2023-02-18T09:10:27.005Z,99657.31
2023-02-18T09:12:55.177Z,99654.73
2023-02-18T09:15:23.634Z,99657.17
2023-02-18T09:17:52.305Z,99661.70
2023-02-18T09:20:20.947Z,99661.02
2023-02-18T09:22:49.191Z,99656.88
2023-02-18T09:25:17.604Z,99651.87
2023-02-18T09:27:45.941Z,99651.39
2023-02-18T09:30:14.488Z,99647.59
2023-02-18T09:32:42.786Z,99644.46
2023-02-18T09:35:11.102Z,99640.49
2023-02-18T09:37:40.238Z,99641.38
2023-02-18T09:40:09.298Z,99638.45
2023-02-18T09:42:37.696Z,99636.20
2023-02-18T09:45:11.741Z,99633.29
2023-02-18T09:47:42.789Z,99634.70
2023-02-18T09:50:11.062Z,99632.48
2023-02-18T09:52:39.917Z,99626.93
2023-02-18T09:55:21.328Z,99627.64
2023-02-18T09:57:53.725Z,99625.77
2023-02-18T10:00:29.114Z,99623.60
2023-02-18T10:03:19.704Z,99617.95
2023-02-18T10:06:00.781Z,99619.07
2023-02-18T10:08:35.318Z,99614.77
2023-02-18T10:11:05.043Z,99616.90
2023-02-18T10:13:34.499Z,99616.58
2023-02-18T10:16:05.772Z,99616.58
2023-02-18T10:18:43.157Z,99609.81
2023-02-18T10:21:33.227Z,99599.21
2023-02-18T10:24:08.431Z,99599.58
2023-02-18T10:26:38.383Z,99598.89
2023-02-18T10:29:16.012Z,99593.89
2023-02-18T10:31:52.876Z,99586.10
2023-02-18T10:34:41.696Z,99584.39
2023-02-18T10:37:41.376Z,99576.96
2023-02-18T10:40:15.744Z,99567.97
2023-02-18T10:42:47.085Z,99559.84
2023-02-18T10:45:30.421Z,99557.97
2023-02-18T10:48:18.828Z,99557.30
2023-02-18T10:50:47.346Z,99555.95
2023-02-18T10:53:40.656Z,99551.27
2023-02-18T10:56:09.327Z,99542.58
2023-02-18T10:58:46.266Z,99545.02
2023-02-18T11:01:21.995Z,99543.62
2023-02-18T11:03:52.941Z,99532.31
2023-02-18T11:06:37.781Z,99533.73
2023-02-18T11:09:07.541Z,99526.45
2023-02-18T11:11:39.371Z,99524.36
2023-02-18T11:14:13.331Z,99523.15
2023-02-18T11:16:47.233Z,99526.10
2023-02-18T11:19:37.063Z,99520.52
2023-02-18T11:22:25.438Z,99515.81
2023-02-18T11:24:59.185Z,99521.02
2023-02-18T11:27:51.539Z,99518.92
2023-02-18T11:30:20.247Z,99516.98
2023-02-18T11:32:50.581Z,99520.11
2023-02-18T11:35:25.324Z,99527.09
2023-02-18T11:37:54.370Z,99519.98
2023-02-18T11:40:32.847Z,99524.16
2023-02-18T11:43:06.050Z,99528.15
2023-02-18T11:45:35.893Z,99535.63
2023-02-18T11:48:24.006Z,99532.29
2023-02-18T11:50:54.220Z,99523.57
2023-02-18T11:53:32.756Z,99519.23
2023-02-18T11:56:17.141Z,99516.45
2023-02-18T11:58:48.138Z,99502.73
2023-02-18T12:01:36.879Z,99498.04
2023-02-18T12:04:44.212Z,99497.88
2023-02-18T12:07:21.496Z,99485.53
2023-02-18T12:09:55.683Z,99478.89
2023-02-18T12:12:38.593Z,99471.06
2023-02-18T12:15:14.272Z,99474.70
2023-02-18T12:18:10.336Z,99473.83
2023-02-18T12:20:48.073Z,99470.68
2023-02-18T12:23:44.558Z,99465.80
2023-02-18T12:26:34.369Z,99464.58
2023-02-18T12:29:33.656Z,99467.38
2023-02-18T12:32:44.533Z,99470.31
2023-02-18T12:35:31.749Z,99465.94
2023-02-18T12:38:31.219Z,99468.67
2023-02-18T12:41:18.252Z,99463.76
2023-02-18T12:44:07.521Z,99461.11
2023-02-18T12:47:09.470Z,99459.19
2023-02-18T12:49:56.613Z,99461.62
2023-02-18T12:52:40.305Z,99459.70
2023-02-18T12:55:08.537Z,99454.31
2023-02-18T16:28:33.348Z,99473.55
2023-02-18T16:31:01.536Z,99476.67
2023-02-18T16:33:29.829Z,99480.20
2023-02-18T16:35:57.940Z,99486.49
2023-02-18T16:38:26.049Z,99490.35
2023-02-18T16:40:54.988Z,99485.88
2023-02-18T16:43:27.093Z,99487.10
2023-02-18T16:46:06.454Z,99482.39
2023-02-18T16:48:42.718Z,99487.06
2023-02-18T16:51:18.393Z,99497.30
2023-02-18T16:53:46.566Z,99505.63
2023-02-18T16:56:18.269Z,99509.46
2023-02-18T16:58:46.492Z,99519.17
2023-02-18T17:01:32.629Z,99520.71
2023-02-18T17:04:02.192Z,99531.29
2023-02-18T17:06:30.851Z,99536.99
2023-02-18T17:08:59.878Z,99543.56
2023-02-18T17:11:34.143Z,99549.80
2023-02-18T17:14:05.243Z,99555.15
2023-02-18T17:16:33.558Z,99557.35
2023-02-18T17:19:13.956Z,99555.08
2023-02-18T17:21:45.560Z,99561.48
2023-02-18T17:24:17.092Z,99568.05
2023-02-18T17:26:45.410Z,99563.85
2023-02-18T17:29:20.542Z,99569.46
2023-02-18T17:31:55.210Z,99573.73
2023-02-18T17:34:29.221Z,99568.11
2023-02-18T17:36:57.417Z,99565.27
2023-02-18T17:39:25.603Z,99572.72
2023-02-18T17:41:53.713Z,99571.83
2023-02-18T17:44:24.023Z,99580.14
2023-02-18T17:46:55.345Z,99590.54
2023-02-18T17:49:23.609Z,99596.07
2023-02-18T17:51:52.674Z,99605.90
2023-02-18T17:54:22.979Z,99610.36
2023-02-18T17:56:51.337Z,99616.92
2023-02-18T17:59:19.435Z,99621.80
2023-02-18T18:01:47.929Z,99622.14
2023-02-18T18:04:22.199Z,99630.59
2023-02-18T18:06:51.260Z,99640.44
2023-02-18T18:09:19.286Z,99638.01
2023-02-18T18:11:47.363Z,99637.45
2023-02-18T18:14:15.555Z,99639.36
2023-02-18T18:16:43.780Z,99641.78
2023-02-18T18:19:21.830Z,99645.56
2023-02-18T18:21:50.162Z,99647.98
2023-02-18T18:24:34.869Z,99653.69
2023-02-18T18:27:03.191Z,99658.75
2023-02-18T18:29:31.475Z,99660.01
2023-02-18T18:32:00.195Z,99658.95
2023-02-18T18:34:28.762Z,99663.81
2023-02-18T18:36:58.478Z,99663.97
2023-02-18T18:39:26.675Z,99666.69
2023-02-18T18:41:54.786Z,99669.09
2023-02-18T18:44:23.908Z,99666.33
2023-02-18T18:46:52.120Z,99668.92
2023-02-18T18:49:20.380Z,99666.48
2023-02-18T18:51:58.102Z,99672.80
2023-02-18T18:54:26.308Z,99677.81
2023-02-18T18:56:55.182Z,99678.11
2023-02-18T18:59:23.223Z,99679.14
2023-02-18T19:01:52.141Z,99682.27
2023-02-18T19:04:21.179Z,99683.86
2023-02-18T19:06:50.651Z,99679.89
2023-02-18T19:09:18.920Z,99676.77
2023-02-18T19:11:47.096Z,99681.11
2023-02-18T19:14:18.558Z,99686.52
2023-02-18T19:16:46.761Z,99684.42
2023-02-18T19:19:14.918Z,99685.27
2023-02-18T19:21:43.048Z,99682.11
2023-02-18T19:24:11.277Z,99686.98
2023-02-18T19:26:43.487Z,99684.05
2023-02-18T19:29:11.576Z,99691.63
2023-02-18T19:31:39.802Z,99693.80
2023-02-18T19:34:15.160Z,99700.52
2023-02-18T19:36:45.306Z,99700.54
2023-02-18T19:39:13.529Z,99705.95
2023-02-18T19:41:41.650Z,99710.87
2023-02-18T19:44:09.731Z,99709.83
2023-02-18T19:46:37.970Z,99700.83
2023-02-18T19:49:08.814Z,99702.15
2023-02-18T19:51:37.723Z,99706.80
2023-02-18T19:54:05.938Z,99709.05
2023-02-18T19:56:43.481Z,99715.48
2023-02-18T19:59:12.920Z,99723.27
2023-02-18T20:01:41.156Z,99736.80
2023-02-18T20:04:12.162Z,99735.77
2023-02-18T20:06:40.962Z,99733.15
2023-02-18T20:09:09.132Z,99744.21
2023-02-18T20:11:37.397Z,99753.39
2023-02-18T20:14:05.586Z,99753.39
2023-02-18T20:16:33.646Z,99753.92
2023-02-18T20:19:01.783Z,99760.32
2023-02-18T20:21:30.720Z,99759.62
2023-02-18T20:24:00.217Z,99761.17
2023-02-18T20:26:30.196Z,99758.20
2023-02-18T20:28:59.030Z,99763.20
2023-02-18T20:31:27.304Z,99755.73
2023-02-18T20:33:59.249Z,99745.50
2023-02-18T20:36:28.190Z,99752.27
2023-02-18T20:39:00.497Z,99760.02
2023-02-18T20:41:33.083Z,99770.50
2023-02-18T20:44:02.134Z,99765.64
2023-02-18T20:46:30.275Z,99777.74
2023-02-18T20:48:59.364Z,99784.29
2023-02-18T20:51:27.794Z,99787.09
2023-02-18T20:53:56.051Z,99782.77
2023-02-18T20:56:25.082Z,99787.05
2023-02-18T20:58:53.199Z,99784.44
2023-02-18T21:01:21.396Z,99782.70
2023-02-18T21:03:49.955Z,99788.08
2023-02-18T21:06:21.467Z,99785.17
2023-02-18T21:08:53.744Z,99783.84
2023-02-18T21:11:26.996Z,99787.65
2023-02-18T21:13:57.157Z,99783.17
2023-02-18T21:16:27.667Z,99780.38
2023-02-18T21:18:56.202Z,99783.98
2023-02-18T21:21:24.964Z,99778.03
2023-02-18T21:23:53.622Z,99783.97
2023-02-18T21:26:24.818Z,99777.05
2023-02-18T21:28:55.923Z,99771.39
2023-02-18T21:31:27.169Z,99777.96
2023-02-18T21:33:55.794Z,99787.23
2023-02-18T21:36:24.829Z,99790.23
2023-02-18T21:38:56.655Z,99786.05
2023-02-18T21:41:26.171Z,99786.73
2023-02-18T21:43:54.581Z,99789.33
2023-02-18T21:46:26.284Z,99793.85
2023-02-18T21:49:07.223Z,99785.85
2023-02-18T21:51:56.692Z,99788.08
2023-02-18T21:54:26.614Z,99793.09
2023-02-18T21:56:56.446Z,99803.16
2023-02-18T21:59:27.060Z,99796.95
2023-02-18T22:01:56.345Z,99803.73
2023-02-18T22:04:25.458Z,99806.80
2023-02-18T22:06:53.688Z,99803.83
2023-02-18T22:09:21.967Z,99802.44
2023-02-18T22:11:50.883Z,99806.42
2023-02-18T22:14:19.090Z,99805.94
2023-02-18T22:16:48.055Z,99801.41
2023-02-18T22:19:16.349Z,99803.99
2023-02-18T22:21:44.864Z,99811.95
2023-02-18T22:24:14.702Z,99812.64
2023-02-18T22:26:44.100Z,99816.92
2023-02-18T22:29:14.110Z,99812.88
2023-02-18T22:31:42.803Z,99808.88
2023-02-18T22:34:11.536Z,99810.10
2023-02-18T22:36:40.032Z,99808.21
2023-02-18T22:39:10.175Z,99806.51
2023-02-18T22:41:38.496Z,99802.35
2023-02-18T22:44:10.878Z,99808.38
2023-02-18T22:46:41.443Z,99813.38
2023-02-18T22:49:09.782Z,99815.44
2023-02-18T22:51:40.775Z,99819.27
2023-02-18T22:54:16.926Z,99821.91
2023-02-18T22:56:47.528Z,99820.56
2023-02-18T22:59:17.891Z,99817.44
2023-02-18T23:01:49.857Z,99819.15
2023-02-18T23:04:20.153Z,99820.88
2023-02-18T23:06:49.765Z,99822.00
2023-02-18T23:09:22.672Z,99824.07
2023-02-18T23:11:56.662Z,99825.97
2023-02-18T23:14:28.399Z,99837.73
2023-02-18T23:17:14.638Z,99839.97
2023-02-18T23:19:45.864Z,99833.66
2023-02-18T23:22:16.716Z,99834.35
2023-02-18T23:24:46.517Z,99838.89
2023-02-18T23:27:15.422Z,99837.16
2023-02-18T23:29:43.542Z,99838.00
2023-02-18T23:32:11.830Z,99840.05
2023-02-18T23:34:40.333Z,99835.52
2023-02-18T23:37:08.491Z,99830.98
2023-02-18T23:39:37.319Z,99834.81
2023-02-18T23:42:05.706Z,99836.23
2023-02-18T23:44:33.803Z,99834.03
2023-02-18T23:47:01.913Z,99833.89
2023-02-18T23:49:30.135Z,99830.58
2023-02-18T23:51:58.357Z,99835.71
2023-02-18T23:54:26.572Z,99837.77
2023-02-18T23:56:54.810Z,99836.92
2023-02-18T23:59:22.897Z,99826.41
